EKBI/BLL METAR and TAF weather

Enter ICAO airport designator
Station Type Date Time Source
EKBI METAR 2022/12/04 04:20 UTC NOAA

EKBI 040420Z AUTO 06007KT 9999 OVC014/// 02/01 Q1025


Station Type Date Time Source
EKBI Decoded METAR 2022/12/04 04:20 UTC NOAA

Billund Lufthavn, Denmark (EKBI) 55-44N 009-10E 79M
Dec 03, 2022 - 11:20 PM EST / 2022.12.04 0420 UTC
Wind: from the ENE (060 degrees) at 8 MPH (7 KT):0
Visibility: greater than 7 mile(s):0
Sky conditions: overcast
Temperature: 35 F (2 C)
Windchill: 28 F (-2 C):1
Dew Point: 33 F (1 C)
Relative Humidity: 93%
Pressure (altimeter): 30.27 in. Hg (1025 hPa)
ob: EKBI 040420Z AUTO 06007KT 9999 OVC014/// 02/01 Q1025
cycle: 4

Station Type Date Time Source
EKBI TAF 2022/12/03 18:53 UTC NOAA

TAF
AMD EKBI 031845Z 0318/0418 05010KT 9999 BKN018
TEMPO 0318/0405 4000 -RASN BKN008
TEMPO 0405/0418 2500 -RASN BKN008

Example: see airport list